Terminal Aerodrome Forecast
Issued by NWS Charleston, SC

Home | Current Version | Previous Version | Text Only | Print | Product List | Glossary On
Versions: 1 2 3 4 5 6 7 8 9 10 11 12 13 14 15 16 17 18 19
000
FTUS42 KCHS 291732
TAFSAV
TAF
KSAV 291732Z 2918/3018 11012G18KT P6SM SCT035 BKN060
     FM300200 09005KT P6SM SCT020
     FM300800 VRB04KT P6SM SCT010 BKN035
     FM301500 10011KT P6SM SCT020 BKN040=

USA.gov is the U.S. government's official web portal to all federal, state and local government web resources and services.